createdAt,value
2018-08-12T00:02:26.443Z,1.93
2018-08-12T00:04:56.713Z,2.30
2018-08-12T00:07:25.734Z,2.23
2018-08-12T00:09:53.737Z,2.20
2018-08-12T00:12:21.760Z,2.17
2018-08-12T00:14:50.002Z,1.90
2018-08-12T00:17:18.210Z,2.33
2018-08-12T00:19:46.413Z,2.10
2018-08-12T00:22:14.737Z,2.00
2018-08-12T00:24:43.113Z,2.20
2018-08-12T00:27:11.309Z,2.60
2018-08-12T00:29:39.321Z,2.20
2018-08-12T00:32:07.288Z,2.63
2018-08-12T00:34:35.509Z,2.23
2018-08-12T00:37:04.083Z,1.70
2018-08-12T00:39:32.918Z,2.07
2018-08-12T00:42:00.968Z,2.33
2018-08-12T00:44:29.347Z,1.90
2018-08-12T00:46:57.617Z,2.07
2018-08-12T00:49:25.901Z,2.37
2018-08-12T00:51:54.152Z,2.13
2018-08-12T00:54:22.438Z,2.20
2018-08-12T00:56:50.675Z,2.00
2018-08-12T00:59:18.871Z,1.90
2018-08-12T01:01:47.179Z,2.23
2018-08-12T01:04:15.486Z,2.73
2018-08-12T01:06:43.441Z,2.00
2018-08-12T01:09:13.063Z,2.43
2018-08-12T01:11:41.328Z,2.10
2018-08-12T01:14:09.585Z,2.23
2018-08-12T01:16:37.868Z,1.90
2018-08-12T01:19:06.149Z,2.47
2018-08-12T01:21:34.539Z,2.33
2018-08-12T01:24:03.061Z,2.30
2018-08-12T01:26:31.397Z,2.40
2018-08-12T01:28:59.713Z,1.87
2018-08-12T01:31:27.920Z,2.00
2018-08-12T01:33:56.069Z,1.93
2018-08-12T01:36:24.230Z,2.13
2018-08-12T01:38:52.378Z,1.90
2018-08-12T01:41:20.537Z,2.20
2018-08-12T01:43:48.676Z,1.83
2018-08-12T01:46:16.820Z,2.40
2018-08-12T01:48:44.969Z,2.37
2018-08-12T01:51:13.153Z,2.47
2018-08-12T01:53:41.301Z,2.37
2018-08-12T01:56:09.441Z,2.13
2018-08-12T01:58:37.369Z,2.43
2018-08-12T02:01:05.538Z,2.50
2018-08-12T02:03:33.692Z,2.73
2018-08-12T02:06:01.612Z,2.33
2018-08-12T02:08:29.583Z,2.30
2018-08-12T02:10:57.740Z,2.53
2018-08-12T02:13:25.909Z,2.43
2018-08-12T02:15:54.068Z,2.27
2018-08-12T02:18:22.239Z,2.50
2018-08-12T02:20:50.387Z,2.17
2018-08-12T02:23:18.540Z,2.50
2018-08-12T02:25:46.681Z,2.47
2018-08-12T02:28:14.832Z,2.70
2018-08-12T02:30:42.985Z,2.30
2018-08-12T02:33:10.908Z,2.60
2018-08-12T02:35:39.060Z,2.50
2018-08-12T02:38:07.232Z,2.40
2018-08-12T02:40:35.384Z,2.30
2018-08-12T02:43:03.561Z,2.30
2018-08-12T02:45:31.700Z,2.57
2018-08-12T02:47:59.860Z,2.20
2018-08-12T02:50:28.019Z,2.70
2018-08-12T02:52:56.179Z,2.67
2018-08-12T02:55:24.331Z,2.30
2018-08-12T02:57:52.260Z,2.73
2018-08-12T03:00:20.434Z,2.57
2018-08-12T03:02:48.565Z,2.30
2018-08-12T03:05:16.720Z,2.53
2018-08-12T03:07:44.879Z,2.50
2018-08-12T03:10:12.886Z,2.53
2018-08-12T03:12:41.157Z,2.40
2018-08-12T03:15:10.377Z,2.50
2018-08-12T03:17:38.757Z,2.70
2018-08-12T03:20:08.469Z,2.80
2018-08-12T03:22:36.941Z,2.77
2018-08-12T03:25:06.009Z,2.97
2018-08-12T03:27:34.370Z,2.70
2018-08-12T03:30:02.856Z,2.37
2018-08-12T03:32:30.948Z,2.80
2018-08-12T03:34:59.203Z,2.47
2018-08-12T03:37:27.410Z,2.30
2018-08-12T03:39:55.645Z,2.90
2018-08-12T03:42:23.676Z,2.67
2018-08-12T03:44:51.895Z,2.93
2018-08-12T03:47:20.202Z,2.20
2018-08-12T03:49:48.237Z,3.00
2018-08-12T03:52:16.441Z,3.17
2018-08-12T03:54:44.816Z,2.80
2018-08-12T03:57:13.076Z,2.63
2018-08-12T03:59:41.445Z,3.43
2018-08-12T04:02:09.674Z,3.37
2018-08-12T04:04:37.843Z,3.10
2018-08-12T04:07:06.023Z,3.23
2018-08-12T04:09:34.168Z,3.17
2018-08-12T04:12:02.322Z,3.30
2018-08-12T04:14:30.480Z,3.37
2018-08-12T04:16:59.451Z,2.70
2018-08-12T04:19:28.375Z,3.17
2018-08-12T04:21:56.488Z,3.60
2018-08-12T04:24:25.069Z,3.23
2018-08-12T04:26:52.991Z,3.20
2018-08-12T04:29:21.141Z,3.10
2018-08-12T04:31:49.328Z,3.20
2018-08-12T04:34:17.546Z,3.20
2018-08-12T04:36:45.452Z,3.30
2018-08-12T04:39:14.218Z,3.27
2018-08-12T04:41:43.527Z,3.13
2018-08-12T04:44:11.998Z,3.67
2018-08-12T04:46:39.936Z,3.17
2018-08-12T04:49:09.037Z,3.43
2018-08-12T04:51:37.347Z,3.33
2018-08-12T04:54:05.652Z,3.83
2018-08-12T04:56:33.572Z,3.27
2018-08-12T04:59:01.747Z,2.90
2018-08-12T05:01:29.895Z,3.37
2018-08-12T05:03:58.057Z,3.40
2018-08-12T05:06:25.984Z,3.27
2018-08-12T05:08:54.137Z,3.10
2018-08-12T05:11:22.334Z,3.37
2018-08-12T05:13:50.274Z,2.77
2018-08-12T05:16:18.253Z,3.43
2018-08-12T05:18:46.385Z,3.60
2018-08-12T05:21:14.309Z,3.47
2018-08-12T05:23:42.456Z,3.47
2018-08-12T05:26:10.416Z,3.20
2018-08-12T05:28:38.576Z,3.30
2018-08-12T05:31:06.484Z,3.60
2018-08-12T05:33:34.650Z,3.47
2018-08-12T05:36:02.616Z,3.23
2018-08-12T05:38:30.739Z,3.40
2018-08-12T05:40:58.638Z,3.30
2018-08-12T05:43:26.808Z,3.37
2018-08-12T05:45:54.973Z,3.20
2018-08-12T05:48:22.888Z,3.10
2018-08-12T05:50:51.046Z,3.10
2018-08-12T05:53:18.963Z,2.80
2018-08-12T05:55:46.884Z,2.93
2018-08-12T05:58:15.037Z,2.70
2018-08-12T06:00:43.276Z,3.27
2018-08-12T06:03:11.585Z,3.20
2018-08-12T06:05:39.758Z,2.30
2018-08-12T06:08:08.002Z,2.40
2018-08-12T06:10:36.153Z,2.60
2018-08-12T06:13:04.118Z,2.90
2018-08-12T06:15:32.320Z,2.40
2018-08-12T06:18:00.576Z,3.07
2018-08-12T06:20:28.485Z,2.40
2018-08-12T06:22:56.645Z,2.30
2018-08-12T06:25:24.780Z,2.27
2018-08-12T06:27:52.707Z,2.17
2018-08-12T06:30:20.639Z,2.30
2018-08-12T06:32:48.550Z,2.20
2018-08-12T06:35:16.464Z,2.53
2018-08-12T06:37:44.701Z,2.20
2018-08-12T06:40:13.711Z,2.23
2018-08-12T06:42:44.016Z,2.10
2018-08-12T06:45:13.609Z,2.43
2018-08-12T06:47:41.973Z,2.07
2018-08-12T06:50:10.683Z,2.03
2018-08-12T06:52:39.772Z,1.90
2018-08-12T06:55:09.253Z,1.93
2018-08-12T06:57:37.448Z,2.20
2018-08-12T07:00:07.541Z,2.40
2018-08-12T07:02:35.718Z,2.50
2018-08-12T07:05:04.522Z,2.00
2018-08-12T07:07:32.685Z,2.20
2018-08-12T07:10:00.858Z,2.37
2018-08-12T07:12:28.840Z,2.30
2018-08-12T07:14:57.746Z,2.30
2018-08-12T07:17:26.194Z,2.10
2018-08-12T07:19:54.409Z,1.80
2018-08-12T07:22:22.532Z,1.80
2018-08-12T07:24:51.133Z,1.93
2018-08-12T07:27:19.496Z,2.30
2018-08-12T07:29:47.436Z,1.90
2018-08-12T07:32:15.634Z,1.80
2018-08-12T07:34:43.816Z,2.23
2018-08-12T07:37:11.990Z,1.83
2018-08-12T07:39:39.892Z,1.67
2018-08-12T07:42:08.047Z,1.70
2018-08-12T07:44:35.984Z,2.10
2018-08-12T07:47:04.157Z,1.67
2018-08-12T07:49:32.361Z,1.63
2018-08-12T07:52:00.557Z,1.80
2018-08-12T07:54:28.720Z,1.53
2018-08-12T07:56:56.784Z,1.63
2018-08-12T07:59:24.703Z,1.63
2018-08-12T08:01:52.888Z,1.53
2018-08-12T08:04:21.063Z,1.60
2018-08-12T08:06:49.237Z,1.50
2018-08-12T08:09:17.449Z,1.67
2018-08-12T08:11:45.378Z,1.57
2018-08-12T08:14:13.553Z,1.60
2018-08-12T08:16:41.701Z,1.40
2018-08-12T08:19:09.905Z,1.60
2018-08-12T08:21:38.073Z,1.50
2018-08-12T08:24:06.382Z,1.33
2018-08-12T08:26:35.237Z,1.27
2018-08-12T08:29:03.766Z,1.30
2018-08-12T08:31:32.388Z,1.70
2018-08-12T08:34:00.799Z,1.37
2018-08-12T08:36:29.210Z,1.40
2018-08-12T08:38:57.408Z,1.27
2018-08-12T08:41:25.552Z,1.23
2018-08-12T08:43:54.153Z,1.50
2018-08-12T08:46:22.285Z,1.30
2018-08-12T08:48:50.721Z,1.30
2018-08-12T08:51:19.254Z,1.47
2018-08-12T08:53:47.340Z,1.00
2018-08-12T08:56:15.882Z,1.67
2018-08-12T08:58:44.305Z,1.23
2018-08-12T09:01:12.423Z,1.50
2018-08-12T09:03:40.940Z,1.50
2018-08-12T09:06:09.504Z,1.40
2018-08-12T09:08:38.122Z,1.10
2018-08-12T09:11:06.488Z,1.40
2018-08-12T09:13:34.660Z,1.40
2018-08-12T09:16:03.105Z,1.43
2018-08-12T09:18:31.949Z,1.27
2018-08-12T09:21:00.413Z,1.30
2018-08-12T09:23:28.614Z,1.33
2018-08-12T09:25:57.090Z,1.33
2018-08-12T09:28:25.264Z,1.13
2018-08-12T09:30:53.764Z,0.97
2018-08-12T09:33:22.238Z,1.10
2018-08-12T09:35:50.770Z,1.17
2018-08-12T09:38:19.295Z,1.00
2018-08-12T09:40:47.793Z,1.03
2018-08-12T09:43:16.044Z,1.20
2018-08-12T09:45:44.553Z,0.97
2018-08-12T09:48:13.066Z,1.10
2018-08-12T09:50:41.797Z,1.30
2018-08-12T09:53:10.297Z,0.90
2018-08-12T09:55:38.821Z,1.43
2018-08-12T09:58:07.345Z,1.20
2018-08-12T10:00:39.116Z,1.00
2018-08-12T10:03:08.293Z,1.07
2018-08-12T10:05:36.432Z,1.10
2018-08-12T10:08:04.957Z,1.03
2018-08-12T10:10:33.397Z,0.70
2018-08-12T10:13:01.904Z,1.00
2018-08-12T10:15:30.154Z,0.97
2018-08-12T10:18:00.370Z,1.00
2018-08-12T10:20:28.861Z,1.00
2018-08-12T10:22:57.397Z,1.20
2018-08-12T10:25:25.916Z,1.30
2018-08-12T10:27:54.404Z,0.80
2018-08-12T10:30:22.946Z,1.10
2018-08-12T10:32:51.476Z,1.10
2018-08-12T10:35:19.607Z,0.90
2018-08-12T10:37:48.147Z,1.10
2018-08-12T10:40:18.117Z,1.10
2018-08-12T10:42:47.117Z,2.83
2018-08-12T10:45:15.617Z,1.17
2018-08-12T10:47:44.358Z,1.00
2018-08-12T10:50:15.048Z,1.03
2018-08-12T10:52:44.473Z,1.13
2018-08-12T10:55:13.964Z,1.00
2018-08-12T10:57:42.594Z,0.90
2018-08-12T11:00:15.772Z,0.90
2018-08-12T11:02:44.270Z,1.40
2018-08-12T11:05:13.612Z,1.20
2018-08-12T11:07:42.064Z,0.93
2018-08-12T11:10:11.473Z,1.13
2018-08-12T11:12:43.456Z,1.20
2018-08-12T11:15:11.583Z,1.20
2018-08-12T11:17:40.533Z,1.37
2018-08-12T11:20:09.280Z,1.00
2018-08-12T11:22:41.426Z,1.33
2018-08-12T11:25:11.149Z,0.97
2018-08-12T11:27:39.773Z,1.20
2018-08-12T11:30:08.543Z,1.10
2018-08-12T11:32:45.901Z,1.47
2018-08-12T11:35:15.947Z,1.33
2018-08-12T11:37:44.510Z,1.50
2018-08-12T11:40:13.665Z,1.40
2018-08-12T11:42:41.968Z,1.30
2018-08-12T11:45:13.716Z,1.33
2018-08-12T11:47:42.397Z,1.10
2018-08-12T11:50:11.094Z,1.33
2018-08-12T11:52:39.635Z,1.37
2018-08-12T11:55:09.496Z,1.43
2018-08-12T11:57:37.716Z,1.17
2018-08-12T12:00:08.480Z,1.53
2018-08-12T12:02:36.669Z,1.13
2018-08-12T12:05:06.565Z,1.30
2018-08-12T12:07:34.880Z,1.40
2018-08-12T12:10:03.054Z,1.50
2018-08-12T12:12:31.213Z,1.10
2018-08-12T12:14:59.417Z,1.27
2018-08-12T12:17:27.288Z,1.27
2018-08-12T12:19:55.223Z,1.10
2018-08-12T12:22:24.241Z,1.20
2018-08-12T12:24:52.701Z,1.10
2018-08-12T12:27:20.882Z,1.13
2018-08-12T12:29:49.109Z,1.33
2018-08-12T12:32:17.285Z,1.07
2018-08-12T12:34:45.453Z,1.07
2018-08-12T12:37:13.632Z,1.67
2018-08-12T12:39:41.817Z,0.93
2018-08-12T12:42:09.973Z,1.33
2018-08-12T12:44:38.152Z,2.67
2018-08-12T12:47:06.384Z,1.27
2018-08-12T12:49:34.632Z,1.20
2018-08-12T12:52:02.722Z,1.10
2018-08-12T12:54:30.902Z,1.40
2018-08-12T12:56:59.078Z,1.20
2018-08-12T12:59:27.266Z,1.10
2018-08-12T13:01:56.393Z,1.40
2018-08-12T13:04:24.311Z,1.20
2018-08-12T13:06:52.240Z,1.03
2018-08-12T13:09:20.408Z,1.27
2018-08-12T13:11:48.597Z,1.30
2018-08-12T13:14:16.838Z,1.30
2018-08-12T13:16:45.008Z,1.30
2018-08-12T13:19:13.223Z,1.30
2018-08-12T13:21:41.358Z,1.00
2018-08-12T13:24:09.521Z,1.40
2018-08-12T13:26:37.694Z,1.10
2018-08-12T13:29:05.892Z,1.17
2018-08-12T13:31:34.102Z,1.30
2018-08-12T13:34:07.972Z,1.20
2018-08-12T13:36:36.341Z,0.83
2018-08-12T13:39:08.068Z,1.30
2018-08-12T13:41:35.989Z,1.40
2018-08-12T13:44:04.345Z,1.20
2018-08-12T13:46:32.522Z,1.10
2018-08-12T13:49:00.700Z,1.10
2018-08-12T13:51:28.897Z,1.20
2018-08-12T13:53:57.695Z,1.20
2018-08-12T13:56:25.904Z,1.30
2018-08-12T13:58:54.045Z,1.60
2018-08-12T14:01:22.622Z,1.30
2018-08-12T14:03:57.373Z,1.27
2018-08-12T14:06:25.579Z,1.20
2018-08-12T14:08:59.263Z,1.30
2018-08-12T14:11:28.188Z,1.30
2018-08-12T14:13:56.423Z,1.37
2018-08-12T14:16:24.530Z,1.03
2018-08-12T14:18:52.701Z,1.10
2018-08-12T14:21:20.882Z,1.43
2018-08-12T14:23:49.471Z,1.10
2018-08-12T14:28:59.629Z,1.17
2018-08-12T14:31:27.556Z,0.90
2018-08-12T14:33:55.901Z,1.17
2018-08-12T14:36:24.078Z,1.50
2018-08-12T14:38:52.218Z,1.40
2018-08-12T14:41:21.253Z,1.17
2018-08-12T14:43:49.184Z,1.10
2018-08-12T14:46:17.334Z,1.00
2018-08-12T14:48:47.081Z,1.23
2018-08-12T14:51:15.335Z,1.00
2018-08-12T14:53:43.513Z,1.10
2018-08-12T14:56:11.459Z,1.13
2018-08-12T14:58:39.600Z,1.40
2018-08-12T15:01:07.539Z,1.10
2018-08-12T15:03:35.697Z,1.10
2018-08-12T15:06:03.896Z,1.37
2018-08-12T15:08:32.056Z,1.20
2018-08-12T15:11:00.223Z,1.30
2018-08-12T15:13:28.378Z,1.17
2018-08-12T15:15:56.288Z,1.10
2018-08-12T15:18:24.232Z,1.40
2018-08-12T15:20:52.176Z,1.50
2018-08-12T15:23:20.364Z,1.13
2018-08-12T15:25:48.288Z,1.30
2018-08-12T15:28:16.490Z,1.70
2018-08-12T15:30:44.647Z,1.27
2018-08-12T15:33:12.849Z,1.10
2018-08-12T15:35:40.997Z,1.10
2018-08-12T15:38:09.194Z,1.10
2018-08-12T15:40:37.348Z,1.03
2018-08-12T15:43:05.533Z,1.40
2018-08-12T15:45:34.395Z,1.60
2018-08-12T15:48:02.558Z,1.30
2018-08-12T15:50:30.773Z,1.53
2018-08-12T15:52:58.950Z,1.40
2018-08-12T15:55:26.896Z,1.20
2018-08-12T15:57:55.068Z,1.37
2018-08-12T16:00:23.344Z,1.90
2018-08-12T16:02:51.308Z,5.07
2018-08-12T16:05:19.574Z,1.43
2018-08-12T16:07:48.424Z,1.43
2018-08-12T16:10:19.781Z,1.60
2018-08-12T16:12:49.177Z,1.67
2018-08-12T16:15:18.670Z,1.40
2018-08-12T16:17:46.641Z,1.53
2018-08-12T16:20:14.532Z,2.20
2018-08-12T16:22:42.833Z,1.40
2018-08-12T16:25:13.536Z,1.27
2018-08-12T16:27:42.104Z,1.20
2018-08-12T16:30:11.240Z,1.27
2018-08-12T16:32:39.450Z,2.30
2018-08-12T16:35:09.459Z,1.40
2018-08-12T16:37:48.208Z,1.40
2018-08-12T16:40:18.854Z,1.77
2018-08-12T16:42:47.349Z,1.33
2018-08-12T16:45:16.125Z,1.50
2018-08-12T16:47:45.121Z,1.40
2018-08-12T16:50:13.648Z,1.43
2018-08-12T16:52:42.085Z,1.20
2018-08-12T16:55:13.100Z,1.50
2018-08-12T16:57:41.641Z,1.43
2018-08-12T17:00:14.497Z,1.60
2018-08-12T17:02:42.971Z,1.50
2018-08-12T17:05:13.838Z,1.17
2018-08-12T17:07:42.758Z,1.30
2018-08-12T17:10:12.181Z,1.20
2018-08-12T17:12:40.478Z,1.50
2018-08-12T17:15:14.993Z,1.40
2018-08-12T17:17:45.877Z,1.20
2018-08-12T17:20:16.117Z,1.73
2018-08-12T17:22:45.274Z,1.40
2018-08-12T17:25:13.287Z,1.40
2018-08-12T17:27:41.402Z,1.70
2018-08-12T17:30:11.737Z,1.50
2018-08-12T17:32:39.994Z,1.10
2018-08-12T17:35:08.654Z,1.40
2018-08-12T17:37:37.090Z,1.60
2018-08-12T17:40:11.352Z,1.40
2018-08-12T17:42:40.021Z,1.37
2018-08-12T17:45:09.527Z,1.40
2018-08-12T17:47:37.913Z,1.27
2018-08-12T17:50:06.626Z,1.57
2018-08-12T17:52:34.793Z,1.30
2018-08-12T17:55:02.969Z,1.60
2018-08-12T17:57:31.081Z,1.60
2018-08-12T17:59:59.284Z,1.83
2018-08-12T18:02:38.376Z,1.67
2018-08-12T18:05:07.322Z,1.50
2018-08-12T18:07:35.429Z,1.20
2018-08-12T18:10:04.061Z,1.60
2018-08-12T18:12:32.553Z,1.50
2018-08-12T18:15:01.048Z,1.83
2018-08-12T18:17:29.544Z,1.30
2018-08-12T18:19:57.708Z,1.27
2018-08-12T18:22:26.388Z,1.60
2018-08-12T18:24:54.579Z,1.40
2018-08-12T18:27:23.062Z,1.70
2018-08-12T18:29:51.488Z,1.70
2018-08-12T18:32:20.011Z,1.57
2018-08-12T18:34:49.426Z,1.93
2018-08-12T18:37:18.022Z,1.87
2018-08-12T18:39:49.847Z,1.80
2018-08-12T18:42:18.435Z,2.40
2018-08-12T18:44:47.401Z,2.00
2018-08-12T18:47:15.786Z,1.70
2018-08-12T18:49:44.525Z,1.43
2018-08-12T18:52:13.226Z,1.50
2018-08-12T18:54:41.708Z,2.40
2018-08-12T18:57:09.930Z,1.50
2018-08-12T18:59:38.203Z,1.40
2018-08-12T19:02:06.170Z,1.37
2018-08-12T19:04:34.312Z,1.43
2018-08-12T19:07:02.530Z,1.60
2018-08-12T19:09:30.481Z,1.90
2018-08-12T19:11:58.449Z,1.60
2018-08-12T19:14:26.709Z,2.13
2018-08-12T19:16:55.660Z,2.47
2018-08-12T19:19:23.874Z,2.70
2018-08-12T19:22:02.665Z,2.20
2018-08-12T19:24:31.097Z,1.80
2018-08-12T19:26:59.380Z,2.40
2018-08-12T19:29:27.692Z,2.30
2018-08-12T19:31:55.731Z,2.30
2018-08-12T19:34:24.035Z,2.33
2018-08-12T19:36:52.695Z,1.77
2018-08-12T19:39:20.948Z,2.30
2018-08-12T19:41:50.253Z,1.97
2018-08-12T19:44:18.713Z,2.10
2018-08-12T19:46:46.943Z,1.83
2018-08-12T19:49:15.055Z,1.87
2018-08-12T19:51:43.589Z,1.80
2018-08-12T19:54:11.927Z,2.03
2018-08-12T19:56:40.228Z,2.00
2018-08-12T19:59:08.207Z,1.80
2018-08-12T20:01:36.455Z,1.77
2018-08-12T20:04:04.899Z,1.87
2018-08-12T20:06:36.365Z,1.70
2018-08-12T20:09:08.262Z,2.00
2018-08-12T20:11:37.715Z,2.20
2018-08-12T20:14:08.811Z,1.90
2018-08-12T20:16:38.256Z,2.03
2018-08-12T20:19:07.108Z,2.00
2018-08-12T20:21:35.254Z,2.17
2018-08-12T20:24:04.237Z,1.83
2018-08-12T20:26:34.151Z,1.77
2018-08-12T20:29:02.589Z,1.97
2018-08-12T20:31:30.934Z,1.90
2018-08-12T20:33:59.349Z,2.00
2018-08-12T20:36:29.287Z,2.20
2018-08-12T20:38:58.808Z,2.10
2018-08-12T20:41:27.464Z,1.97
2018-08-12T20:43:55.751Z,1.70
2018-08-12T20:46:24.062Z,1.83
2018-08-12T20:48:52.481Z,2.03
2018-08-12T20:51:20.664Z,1.97
2018-08-12T20:53:50.213Z,1.80
2018-08-12T20:56:18.398Z,1.80
2018-08-12T20:58:47.104Z,1.70
2018-08-12T21:01:15.308Z,2.13
2018-08-12T21:03:43.748Z,2.03
2018-08-12T21:06:12.371Z,1.80
2018-08-12T21:08:40.848Z,1.90
2018-08-12T21:11:09.443Z,2.17
2018-08-12T21:13:38.080Z,1.70
2018-08-12T21:16:07.034Z,1.90
2018-08-12T21:18:35.345Z,1.80
2018-08-12T21:21:03.889Z,1.70
2018-08-12T21:23:32.160Z,1.80
2018-08-12T21:26:00.720Z,2.03
2018-08-12T21:28:29.236Z,2.10
2018-08-12T21:31:01.954Z,2.13
2018-08-12T21:33:30.616Z,1.67
2018-08-12T21:35:59.453Z,1.90
2018-08-12T21:38:27.881Z,1.67
2018-08-12T21:40:56.064Z,1.73
2018-08-12T21:43:24.360Z,1.90
2018-08-12T21:45:53.026Z,1.97
2018-08-12T21:48:21.214Z,1.60
2018-08-12T21:50:49.193Z,2.33
2018-08-12T21:53:17.160Z,1.97
2018-08-12T21:55:45.108Z,1.90
2018-08-12T21:58:13.307Z,2.37
2018-08-12T22:00:41.507Z,1.80
2018-08-12T22:03:09.452Z,1.70
2018-08-12T22:05:37.396Z,1.90
2018-08-12T22:08:08.916Z,1.80
2018-08-12T22:10:37.708Z,1.83
2018-08-12T22:13:06.260Z,2.07
2018-08-12T22:15:34.456Z,2.33
2018-08-12T22:18:02.657Z,1.73
2018-08-12T22:20:30.933Z,1.97
2018-08-12T22:22:59.098Z,2.50
2018-08-12T22:25:27.350Z,1.73
2018-08-12T22:27:55.577Z,2.23
2018-08-12T22:30:23.761Z,2.17
2018-08-12T22:32:51.968Z,1.80
2018-08-12T22:35:19.879Z,1.80
2018-08-12T22:37:48.055Z,2.37
2018-08-12T22:40:16.201Z,1.77
2018-08-12T22:42:44.365Z,2.10
2018-08-12T22:45:12.540Z,1.97
2018-08-12T22:47:41.218Z,1.90
2018-08-12T22:50:11.226Z,2.10
2018-08-12T22:52:39.373Z,1.80
2018-08-12T22:55:08.139Z,2.10
2018-08-12T22:57:37.308Z,2.10
2018-08-12T23:00:07.452Z,1.97
2018-08-12T23:02:35.393Z,2.10
2018-08-12T23:05:04.277Z,2.13
2018-08-12T23:07:32.509Z,1.93
2018-08-12T23:10:01.498Z,2.70
2018-08-12T23:12:29.708Z,1.80
2018-08-12T23:15:09.566Z,2.27
2018-08-12T23:17:37.751Z,2.30
2018-08-12T23:20:05.896Z,2.40
2018-08-12T23:22:34.191Z,2.10
2018-08-12T23:25:02.434Z,2.83
2018-08-12T23:27:30.369Z,2.30
2018-08-12T23:29:58.522Z,2.23
2018-08-12T23:32:26.688Z,2.10
2018-08-12T23:34:54.852Z,2.70
2018-08-12T23:37:23.065Z,3.37
2018-08-12T23:39:51.217Z,2.47
2018-08-12T23:42:19.388Z,2.10
2018-08-12T23:44:47.323Z,1.80
2018-08-12T23:47:15.504Z,2.30
2018-08-12T23:49:43.673Z,1.70
2018-08-12T23:52:11.974Z,2.10
2018-08-12T23:54:40.204Z,1.83
2018-08-12T23:57:08.388Z,2.00
2018-08-12T23:59:36.524Z,2.10
